sensor_id;sensor_type;location;lat;lon;timestamp;P1;durP1;ratioP1;P2;durP2;ratioP2
28166;SDS011;15455;53.376;-6.262;2023-03-23T00:00:53;10.32;;;1.67;;
28166;SDS011;15455;53.376;-6.262;2023-03-23T00:03:38;8.30;;;1.58;;
28166;SDS011;15455;53.376;-6.262;2023-03-23T00:06:25;8.30;;;1.38;;
28166;SDS011;15455;53.376;-6.262;2023-03-23T00:09:11;7.38;;;1.30;;
28166;SDS011;15455;53.376;-6.262;2023-03-23T00:11:57;6.75;;;0.85;;
28166;SDS011;15455;53.376;-6.262;2023-03-23T00:14:49;10.70;;;1.38;;
28166;SDS011;15455;53.376;-6.262;2023-03-23T00:17:37;10.15;;;1.42;;
28166;SDS011;15455;53.376;-6.262;2023-03-23T00:20:24;13.80;;;1.25;;
28166;SDS011;15455;53.376;-6.262;2023-03-23T00:23:08;11.18;;;1.65;;
28166;SDS011;15455;53.376;-6.262;2023-03-23T00:25:54;8.20;;;1.92;;
28166;SDS011;15455;53.376;-6.262;2023-03-23T00:28:42;20.58;;;2.95;;
28166;SDS011;15455;53.376;-6.262;2023-03-23T00:31:27;12.57;;;2.20;;
28166;SDS011;15455;53.376;-6.262;2023-03-23T00:34:20;7.82;;;1.42;;
28166;SDS011;15455;53.376;-6.262;2023-03-23T00:37:06;5.90;;;1.48;;
28166;SDS011;15455;53.376;-6.262;2023-03-23T00:39:51;7.70;;;1.55;;
28166;SDS011;15455;53.376;-6.262;2023-03-23T00:42:41;15.55;;;2.30;;
28166;SDS011;15455;53.376;-6.262;2023-03-23T00:45:25;12.27;;;1.80;;
28166;SDS011;15455;53.376;-6.262;2023-03-23T00:48:12;19.50;;;1.60;;
28166;SDS011;15455;53.376;-6.262;2023-03-23T00:50:57;9.00;;;1.52;;
28166;SDS011;15455;53.376;-6.262;2023-03-23T00:53:41;12.50;;;1.88;;
28166;SDS011;15455;53.376;-6.262;2023-03-23T00:56:26;8.98;;;1.55;;
28166;SDS011;15455;53.376;-6.262;2023-03-23T00:59:10;14.45;;;1.45;;
28166;SDS011;15455;53.376;-6.262;2023-03-23T01:01:55;7.50;;;1.05;;
28166;SDS011;15455;53.376;-6.262;2023-03-23T01:04:39;12.48;;;1.42;;
28166;SDS011;15455;53.376;-6.262;2023-03-23T01:07:24;17.55;;;2.50;;
28166;SDS011;15455;53.376;-6.262;2023-03-23T01:10:08;6.20;;;1.30;;
28166;SDS011;15455;53.376;-6.262;2023-03-23T01:12:56;16.27;;;2.13;;
28166;SDS011;15455;53.376;-6.262;2023-03-23T01:15:40;17.42;;;1.95;;
28166;SDS011;15455;53.376;-6.262;2023-03-23T01:18:26;9.30;;;1.63;;
28166;SDS011;15455;53.376;-6.262;2023-03-23T01:21:11;19.60;;;2.55;;
28166;SDS011;15455;53.376;-6.262;2023-03-23T01:23:58;12.93;;;2.75;;
28166;SDS011;15455;53.376;-6.262;2023-03-23T01:26:42;11.68;;;1.52;;
28166;SDS011;15455;53.376;-6.262;2023-03-23T01:29:27;5.63;;;1.65;;
28166;SDS011;15455;53.376;-6.262;2023-03-23T01:32:11;15.57;;;2.08;;
28166;SDS011;15455;53.376;-6.262;2023-03-23T01:34:57;14.43;;;1.75;;
28166;SDS011;15455;53.376;-6.262;2023-03-23T01:37:42;10.35;;;2.42;;
28166;SDS011;15455;53.376;-6.262;2023-03-23T01:40:26;7.40;;;1.27;;
28166;SDS011;15455;53.376;-6.262;2023-03-23T01:43:14;7.43;;;1.05;;
28166;SDS011;15455;53.376;-6.262;2023-03-23T01:46:01;7.65;;;1.27;;
28166;SDS011;15455;53.376;-6.262;2023-03-23T01:48:45;3.72;;;0.70;;
28166;SDS011;15455;53.376;-6.262;2023-03-23T01:51:30;5.80;;;0.80;;
28166;SDS011;15455;53.376;-6.262;2023-03-23T01:54:15;9.57;;;1.02;;
28166;SDS011;15455;53.376;-6.262;2023-03-23T01:57:07;4.25;;;0.63;;
28166;SDS011;15455;53.376;-6.262;2023-03-23T02:00:06;4.07;;;0.55;;
28166;SDS011;15455;53.376;-6.262;2023-03-23T02:05:42;5.53;;;1.23;;
28166;SDS011;15455;53.376;-6.262;2023-03-23T02:08:44;1.85;;;0.65;;
28166;SDS011;15455;53.376;-6.262;2023-03-23T02:11:31;4.75;;;0.70;;
28166;SDS011;15455;53.376;-6.262;2023-03-23T02:14:16;6.15;;;1.20;;
28166;SDS011;15455;53.376;-6.262;2023-03-23T02:20:00;9.38;;;1.55;;
28166;SDS011;15455;53.376;-6.262;2023-03-23T02:39:12;7.07;;;2.10;;
28166;SDS011;15455;53.376;-6.262;2023-03-23T02:42:02;10.93;;;1.92;;
28166;SDS011;15455;53.376;-6.262;2023-03-23T02:44:50;10.52;;;1.75;;
28166;SDS011;15455;53.376;-6.262;2023-03-23T02:47:38;8.48;;;1.20;;
28166;SDS011;15455;53.376;-6.262;2023-03-23T02:50:25;11.93;;;1.67;;
28166;SDS011;15455;53.376;-6.262;2023-03-23T02:53:12;7.82;;;1.83;;
28166;SDS011;15455;53.376;-6.262;2023-03-23T02:55:59;10.13;;;1.35;;
28166;SDS011;15455;53.376;-6.262;2023-03-23T02:58:48;12.43;;;1.40;;
28166;SDS011;15455;53.376;-6.262;2023-03-23T03:04:22;8.13;;;1.70;;
28166;SDS011;15455;53.376;-6.262;2023-03-23T03:10:10;15.55;;;1.50;;
28166;SDS011;15455;53.376;-6.262;2023-03-23T03:13:06;14.00;;;1.48;;
28166;SDS011;15455;53.376;-6.262;2023-03-23T03:15:57;8.25;;;1.77;;
28166;SDS011;15455;53.376;-6.262;2023-03-23T03:19:06;10.35;;;1.42;;
28166;SDS011;15455;53.376;-6.262;2023-03-23T03:21:52;10.68;;;1.58;;
28166;SDS011;15455;53.376;-6.262;2023-03-23T03:24:45;7.88;;;1.73;;
28166;SDS011;15455;53.376;-6.262;2023-03-23T03:27:31;9.13;;;1.92;;
28166;SDS011;15455;53.376;-6.262;2023-03-23T03:30:30;11.50;;;1.70;;
28166;SDS011;15455;53.376;-6.262;2023-03-23T03:33:19;11.10;;;1.60;;
28166;SDS011;15455;53.376;-6.262;2023-03-23T03:36:14;4.82;;;1.25;;
28166;SDS011;15455;53.376;-6.262;2023-03-23T03:39:03;12.70;;;1.25;;
28166;SDS011;15455;53.376;-6.262;2023-03-23T03:41:52;7.30;;;0.93;;
28166;SDS011;15455;53.376;-6.262;2023-03-23T03:44:38;6.75;;;1.45;;
28166;SDS011;15455;53.376;-6.262;2023-03-23T03:47:22;5.90;;;0.75;;
28166;SDS011;15455;53.376;-6.262;2023-03-23T03:50:07;9.23;;;1.08;;
28166;SDS011;15455;53.376;-6.262;2023-03-23T03:52:52;5.18;;;1.20;;
28166;SDS011;15455;53.376;-6.262;2023-03-23T03:55:37;6.63;;;1.05;;
28166;SDS011;15455;53.376;-6.262;2023-03-23T03:58:27;2.97;;;0.98;;
28166;SDS011;15455;53.376;-6.262;2023-03-23T04:01:24;9.75;;;0.93;;
28166;SDS011;15455;53.376;-6.262;2023-03-23T04:04:08;7.60;;;1.30;;
28166;SDS011;15455;53.376;-6.262;2023-03-23T04:06:54;7.53;;;0.95;;
28166;SDS011;15455;53.376;-6.262;2023-03-23T04:09:39;7.28;;;0.73;;
28166;SDS011;15455;53.376;-6.262;2023-03-23T04:12:28;5.30;;;1.02;;
28166;SDS011;15455;53.376;-6.262;2023-03-23T04:15:13;6.80;;;1.40;;
28166;SDS011;15455;53.376;-6.262;2023-03-23T04:17:57;7.10;;;1.15;;
28166;SDS011;15455;53.376;-6.262;2023-03-23T04:20:44;7.40;;;0.90;;
28166;SDS011;15455;53.376;-6.262;2023-03-23T04:23:33;4.43;;;0.80;;
28166;SDS011;15455;53.376;-6.262;2023-03-23T04:26:20;5.88;;;0.80;;
28166;SDS011;15455;53.376;-6.262;2023-03-23T04:29:08;11.32;;;1.15;;
28166;SDS011;15455;53.376;-6.262;2023-03-23T04:31:53;3.42;;;1.00;;
28166;SDS011;15455;53.376;-6.262;2023-03-23T04:34:50;5.03;;;0.82;;
28166;SDS011;15455;53.376;-6.262;2023-03-23T04:37:37;11.60;;;1.25;;
28166;SDS011;15455;53.376;-6.262;2023-03-23T04:40:22;7.97;;;1.13;;
28166;SDS011;15455;53.376;-6.262;2023-03-23T04:43:23;5.68;;;0.80;;
28166;SDS011;15455;53.376;-6.262;2023-03-23T04:46:34;8.70;;;0.98;;
28166;SDS011;15455;53.376;-6.262;2023-03-23T04:49:25;9.18;;;1.25;;
28166;SDS011;15455;53.376;-6.262;2023-03-23T04:52:21;6.45;;;1.00;;
28166;SDS011;15455;53.376;-6.262;2023-03-23T04:55:13;7.93;;;1.05;;
28166;SDS011;15455;53.376;-6.262;2023-03-23T04:58:02;7.03;;;1.50;;
28166;SDS011;15455;53.376;-6.262;2023-03-23T05:01:02;9.32;;;1.20;;
28166;SDS011;15455;53.376;-6.262;2023-03-23T05:03:49;7.25;;;1.38;;
28166;SDS011;15455;53.376;-6.262;2023-03-23T05:06:33;8.90;;;1.17;;
28166;SDS011;15455;53.376;-6.262;2023-03-23T05:09:22;7.18;;;1.35;;
28166;SDS011;15455;53.376;-6.262;2023-03-23T05:12:08;19.08;;;1.17;;
28166;SDS011;15455;53.376;-6.262;2023-03-23T05:15:04;14.65;;;1.50;;
28166;SDS011;15455;53.376;-6.262;2023-03-23T05:17:52;14.13;;;1.35;;
28166;SDS011;15455;53.376;-6.262;2023-03-23T05:20:37;8.00;;;1.10;;
28166;SDS011;15455;53.376;-6.262;2023-03-23T05:23:28;8.77;;;1.08;;
28166;SDS011;15455;53.376;-6.262;2023-03-23T05:26:23;2.78;;;0.75;;
28166;SDS011;15455;53.376;-6.262;2023-03-23T05:29:12;7.53;;;2.05;;
28166;SDS011;15455;53.376;-6.262;2023-03-23T05:32:04;6.82;;;1.02;;
28166;SDS011;15455;53.376;-6.262;2023-03-23T05:34:53;6.00;;;0.80;;
28166;SDS011;15455;53.376;-6.262;2023-03-23T05:37:37;5.38;;;0.70;;
28166;SDS011;15455;53.376;-6.262;2023-03-23T05:40:25;10.70;;;1.17;;
28166;SDS011;15455;53.376;-6.262;2023-03-23T05:46:25;6.75;;;0.90;;
28166;SDS011;15455;53.376;-6.262;2023-03-23T05:49:13;12.13;;;1.45;;
28166;SDS011;15455;53.376;-6.262;2023-03-23T05:52:01;11.57;;;1.20;;
28166;SDS011;15455;53.376;-6.262;2023-03-23T05:54:45;3.15;;;0.80;;
28166;SDS011;15455;53.376;-6.262;2023-03-23T05:57:31;5.53;;;1.20;;
28166;SDS011;15455;53.376;-6.262;2023-03-23T06:00:22;4.75;;;1.25;;
28166;SDS011;15455;53.376;-6.262;2023-03-23T06:03:16;9.32;;;1.67;;
28166;SDS011;15455;53.376;-6.262;2023-03-23T06:06:09;2.00;;;0.70;;
28166;SDS011;15455;53.376;-6.262;2023-03-23T06:09:06;9.55;;;1.40;;
28166;SDS011;15455;53.376;-6.262;2023-03-23T06:12:23;5.97;;;1.00;;
28166;SDS011;15455;53.376;-6.262;2023-03-23T06:15:46;3.17;;;1.10;;
28166;SDS011;15455;53.376;-6.262;2023-03-23T06:18:39;8.80;;;0.90;;
28166;SDS011;15455;53.376;-6.262;2023-03-23T06:21:43;5.68;;;0.75;;
28166;SDS011;15455;53.376;-6.262;2023-03-23T06:24:50;6.70;;;1.15;;
28166;SDS011;15455;53.376;-6.262;2023-03-23T06:27:41;2.97;;;0.80;;
28166;SDS011;15455;53.376;-6.262;2023-03-23T06:30:26;8.13;;;1.13;;
28166;SDS011;15455;53.376;-6.262;2023-03-23T06:33:11;3.00;;;0.70;;
28166;SDS011;15455;53.376;-6.262;2023-03-23T06:36:19;7.22;;;0.98;;
28166;SDS011;15455;53.376;-6.262;2023-03-23T06:39:24;10.23;;;1.42;;
28166;SDS011;15455;53.376;-6.262;2023-03-23T06:42:21;10.98;;;1.38;;
28166;SDS011;15455;53.376;-6.262;2023-03-23T06:45:19;16.67;;;2.15;;
28166;SDS011;15455;53.376;-6.262;2023-03-23T06:48:07;14.15;;;1.48;;
28166;SDS011;15455;53.376;-6.262;2023-03-23T06:50:55;7.95;;;1.67;;
28166;SDS011;15455;53.376;-6.262;2023-03-23T06:53:42;7.38;;;1.63;;
28166;SDS011;15455;53.376;-6.262;2023-03-23T06:56:30;6.38;;;0.90;;
28166;SDS011;15455;53.376;-6.262;2023-03-23T06:59:15;5.38;;;1.02;;
28166;SDS011;15455;53.376;-6.262;2023-03-23T07:02:00;14.20;;;1.15;;
28166;SDS011;15455;53.376;-6.262;2023-03-23T07:04:45;10.63;;;2.55;;
28166;SDS011;15455;53.376;-6.262;2023-03-23T07:07:39;6.88;;;0.90;;
28166;SDS011;15455;53.376;-6.262;2023-03-23T07:10:33;9.85;;;1.42;;
28166;SDS011;15455;53.376;-6.262;2023-03-23T07:13:19;12.07;;;1.45;;
28166;SDS011;15455;53.376;-6.262;2023-03-23T07:16:09;10.02;;;1.20;;
28166;SDS011;15455;53.376;-6.262;2023-03-23T07:18:55;6.13;;;1.42;;
28166;SDS011;15455;53.376;-6.262;2023-03-23T07:21:40;16.13;;;1.75;;
28166;SDS011;15455;53.376;-6.262;2023-03-23T07:24:24;7.50;;;1.25;;
28166;SDS011;15455;53.376;-6.262;2023-03-23T07:27:20;18.15;;;1.95;;
28166;SDS011;15455;53.376;-6.262;2023-03-23T07:30:06;5.07;;;1.20;;
28166;SDS011;15455;53.376;-6.262;2023-03-23T07:32:51;25.90;;;1.85;;
28166;SDS011;15455;53.376;-6.262;2023-03-23T07:35:38;15.60;;;2.05;;
28166;SDS011;15455;53.376;-6.262;2023-03-23T07:38:26;10.40;;;1.38;;
28166;SDS011;15455;53.376;-6.262;2023-03-23T07:41:11;24.00;;;2.47;;
28166;SDS011;15455;53.376;-6.262;2023-03-23T07:43:59;11.18;;;1.88;;
28166;SDS011;15455;53.376;-6.262;2023-03-23T07:46:53;9.45;;;1.42;;
28166;SDS011;15455;53.376;-6.262;2023-03-23T07:49:45;10.95;;;1.45;;
28166;SDS011;15455;53.376;-6.262;2023-03-23T07:52:44;11.25;;;1.77;;
28166;SDS011;15455;53.376;-6.262;2023-03-23T07:55:30;9.25;;;1.48;;
28166;SDS011;15455;53.376;-6.262;2023-03-23T07:58:34;9.45;;;1.15;;
28166;SDS011;15455;53.376;-6.262;2023-03-23T08:01:19;6.47;;;1.52;;
28166;SDS011;15455;53.376;-6.262;2023-03-23T08:04:23;13.40;;;2.00;;
28166;SDS011;15455;53.376;-6.262;2023-03-23T08:07:27;8.43;;;1.30;;
28166;SDS011;15455;53.376;-6.262;2023-03-23T08:10:18;14.95;;;1.50;;
28166;SDS011;15455;53.376;-6.262;2023-03-23T08:13:08;15.23;;;1.88;;
28166;SDS011;15455;53.376;-6.262;2023-03-23T08:16:05;13.35;;;2.00;;
28166;SDS011;15455;53.376;-6.262;2023-03-23T08:19:09;11.07;;;1.55;;
28166;SDS011;15455;53.376;-6.262;2023-03-23T08:21:53;8.93;;;1.55;;
28166;SDS011;15455;53.376;-6.262;2023-03-23T08:24:55;11.65;;;1.17;;
28166;SDS011;15455;53.376;-6.262;2023-03-23T08:28:03;8.18;;;1.33;;
28166;SDS011;15455;53.376;-6.262;2023-03-23T08:31:11;16.13;;;1.67;;
28166;SDS011;15455;53.376;-6.262;2023-03-23T08:34:16;7.57;;;1.20;;
28166;SDS011;15455;53.376;-6.262;2023-03-23T08:37:01;11.38;;;1.63;;
28166;SDS011;15455;53.376;-6.262;2023-03-23T08:40:09;8.15;;;1.73;;
28166;SDS011;15455;53.376;-6.262;2023-03-23T08:43:05;8.75;;;1.65;;
28166;SDS011;15455;53.376;-6.262;2023-03-23T08:45:50;10.60;;;1.40;;
28166;SDS011;15455;53.376;-6.262;2023-03-23T08:48:54;10.02;;;1.23;;
28166;SDS011;15455;53.376;-6.262;2023-03-23T08:51:51;10.82;;;1.70;;
28166;SDS011;15455;53.376;-6.262;2023-03-23T08:54:51;16.23;;;1.55;;
28166;SDS011;15455;53.376;-6.262;2023-03-23T08:57:45;11.07;;;1.88;;
28166;SDS011;15455;53.376;-6.262;2023-03-23T09:00:55;11.35;;;1.35;;
28166;SDS011;15455;53.376;-6.262;2023-03-23T09:03:58;12.60;;;1.73;;
28166;SDS011;15455;53.376;-6.262;2023-03-23T09:06:59;11.05;;;1.25;;
28166;SDS011;15455;53.376;-6.262;2023-03-23T09:09:44;8.73;;;1.30;;
28166;SDS011;15455;53.376;-6.262;2023-03-23T09:12:29;9.65;;;1.63;;
28166;SDS011;15455;53.376;-6.262;2023-03-23T09:15:15;6.68;;;1.58;;
28166;SDS011;15455;53.376;-6.262;2023-03-23T09:18:01;12.27;;;1.33;;
28166;SDS011;15455;53.376;-6.262;2023-03-23T09:20:45;8.45;;;1.20;;
28166;SDS011;15455;53.376;-6.262;2023-03-23T09:23:31;10.80;;;1.95;;
28166;SDS011;15455;53.376;-6.262;2023-03-23T09:26:16;14.48;;;2.13;;
28166;SDS011;15455;53.376;-6.262;2023-03-23T09:29:01;7.88;;;1.45;;
28166;SDS011;15455;53.376;-6.262;2023-03-23T09:31:45;17.52;;;1.90;;
28166;SDS011;15455;53.376;-6.262;2023-03-23T09:34:31;8.35;;;1.52;;
28166;SDS011;15455;53.376;-6.262;2023-03-23T09:37:19;13.25;;;1.42;;
28166;SDS011;15455;53.376;-6.262;2023-03-23T09:40:04;13.82;;;1.95;;
28166;SDS011;15455;53.376;-6.262;2023-03-23T09:49:22;9.45;;;1.25;;
28166;SDS011;15455;53.376;-6.262;2023-03-23T09:54:59;12.60;;;1.65;;
28166;SDS011;15455;53.376;-6.262;2023-03-23T10:01:08;10.35;;;1.13;;
28166;SDS011;15455;53.376;-6.262;2023-03-23T10:04:03;16.95;;;1.48;;
28166;SDS011;15455;53.376;-6.262;2023-03-23T10:10:04;8.77;;;1.45;;
28166;SDS011;15455;53.376;-6.262;2023-03-23T10:15:42;11.13;;;1.70;;
28166;SDS011;15455;53.376;-6.262;2023-03-23T10:24:10;12.18;;;1.20;;
28166;SDS011;15455;53.376;-6.262;2023-03-23T10:30:02;8.98;;;1.65;;
28166;SDS011;15455;53.376;-6.262;2023-03-23T10:33:00;8.77;;;1.50;;
28166;SDS011;15455;53.376;-6.262;2023-03-23T10:36:11;11.20;;;1.63;;
28166;SDS011;15455;53.376;-6.262;2023-03-23T10:39:03;8.43;;;1.42;;
28166;SDS011;15455;53.376;-6.262;2023-03-23T10:41:55;16.83;;;1.75;;
28166;SDS011;15455;53.376;-6.262;2023-03-23T10:44:39;9.32;;;1.30;;
28166;SDS011;15455;53.376;-6.262;2023-03-23T10:47:24;8.82;;;0.90;;
28166;SDS011;15455;53.376;-6.262;2023-03-23T10:50:11;10.35;;;1.75;;
28166;SDS011;15455;53.376;-6.262;2023-03-23T10:52:59;8.57;;;1.15;;
28166;SDS011;15455;53.376;-6.262;2023-03-23T10:55:45;11.50;;;3.03;;
28166;SDS011;15455;53.376;-6.262;2023-03-23T10:58:32;5.13;;;0.82;;
28166;SDS011;15455;53.376;-6.262;2023-03-23T11:01:18;10.38;;;1.52;;
28166;SDS011;15455;53.376;-6.262;2023-03-23T11:04:10;9.77;;;1.52;;
28166;SDS011;15455;53.376;-6.262;2023-03-23T11:07:00;4.93;;;1.13;;
28166;SDS011;15455;53.376;-6.262;2023-03-23T11:09:54;10.15;;;2.08;;
28166;SDS011;15455;53.376;-6.262;2023-03-23T11:12:43;10.73;;;1.20;;
28166;SDS011;15455;53.376;-6.262;2023-03-23T11:18:33;8.90;;;1.77;;
28166;SDS011;15455;53.376;-6.262;2023-03-23T11:21:25;10.80;;;0.85;;
28166;SDS011;15455;53.376;-6.262;2023-03-23T11:24:11;7.32;;;1.15;;
28166;SDS011;15455;53.376;-6.262;2023-03-23T11:26:56;8.57;;;1.25;;
28166;SDS011;15455;53.376;-6.262;2023-03-23T11:30:01;16.65;;;1.45;;
28166;SDS011;15455;53.376;-6.262;2023-03-23T11:32:53;8.57;;;0.95;;
28166;SDS011;15455;53.376;-6.262;2023-03-23T11:35:42;4.30;;;1.23;;
28166;SDS011;15455;53.376;-6.262;2023-03-23T11:38:28;7.45;;;1.02;;
28166;SDS011;15455;53.376;-6.262;2023-03-23T11:41:16;4.85;;;0.90;;
28166;SDS011;15455;53.376;-6.262;2023-03-23T11:44:07;6.63;;;1.23;;
28166;SDS011;15455;53.376;-6.262;2023-03-23T11:50:20;7.32;;;0.90;;
28166;SDS011;15455;53.376;-6.262;2023-03-23T11:53:22;6.53;;;0.63;;
28166;SDS011;15455;53.376;-6.262;2023-03-23T11:59:14;8.27;;;1.20;;
28166;SDS011;15455;53.376;-6.262;2023-03-23T12:13:54;5.40;;;1.05;;
28166;SDS011;15455;53.376;-6.262;2023-03-23T12:20:00;7.07;;;1.20;;
28166;SDS011;15455;53.376;-6.262;2023-03-23T12:23:08;9.70;;;0.98;;
28166;SDS011;15455;53.376;-6.262;2023-03-23T12:26:09;7.97;;;0.80;;
28166;SDS011;15455;53.376;-6.262;2023-03-23T12:29:43;7.43;;;1.33;;
28166;SDS011;15455;53.376;-6.262;2023-03-23T12:35:27;11.32;;;1.20;;
28166;SDS011;15455;53.376;-6.262;2023-03-23T12:45:18;6.75;;;1.13;;
28166;SDS011;15455;53.376;-6.262;2023-03-23T12:48:11;6.28;;;1.60;;
28166;SDS011;15455;53.376;-6.262;2023-03-23T12:51:03;6.85;;;1.00;;
28166;SDS011;15455;53.376;-6.262;2023-03-23T12:57:12;8.77;;;1.45;;
28166;SDS011;15455;53.376;-6.262;2023-03-23T13:06:40;13.85;;;1.40;;
28166;SDS011;15455;53.376;-6.262;2023-03-23T13:12:40;6.07;;;1.13;;
28166;SDS011;15455;53.376;-6.262;2023-03-23T13:15:48;10.55;;;1.73;;
28166;SDS011;15455;53.376;-6.262;2023-03-23T13:22:07;9.82;;;1.35;;
28166;SDS011;15455;53.376;-6.262;2023-03-23T13:25:01;19.00;;;1.92;;
28166;SDS011;15455;53.376;-6.262;2023-03-23T13:27:59;6.47;;;1.25;;
28166;SDS011;15455;53.376;-6.262;2023-03-23T13:33:49;3.97;;;1.08;;
28166;SDS011;15455;53.376;-6.262;2023-03-23T13:47:39;4.55;;;1.10;;
28166;SDS011;15455;53.376;-6.262;2023-03-23T13:50:26;2.38;;;0.47;;
28166;SDS011;15455;53.376;-6.262;2023-03-23T13:53:15;4.28;;;1.05;;
28166;SDS011;15455;53.376;-6.262;2023-03-23T14:08:02;7.55;;;1.38;;
28166;SDS011;15455;53.376;-6.262;2023-03-23T14:11:09;8.35;;;1.30;;
28166;SDS011;15455;53.376;-6.262;2023-03-23T14:14:01;10.85;;;1.27;;
28166;SDS011;15455;53.376;-6.262;2023-03-23T14:19:37;6.70;;;0.95;;
28166;SDS011;15455;53.376;-6.262;2023-03-23T14:22:24;6.05;;;1.27;;
28166;SDS011;15455;53.376;-6.262;2023-03-23T14:25:17;7.45;;;1.33;;
28166;SDS011;15455;53.376;-6.262;2023-03-23T14:28:04;8.73;;;1.20;;
28166;SDS011;15455;53.376;-6.262;2023-03-23T14:31:01;4.88;;;1.00;;
28166;SDS011;15455;53.376;-6.262;2023-03-23T14:33:46;6.45;;;1.27;;
28166;SDS011;15455;53.376;-6.262;2023-03-23T14:36:34;3.20;;;0.98;;
28166;SDS011;15455;53.376;-6.262;2023-03-23T14:42:11;4.75;;;0.80;;
28166;SDS011;15455;53.376;-6.262;2023-03-23T14:44:59;10.55;;;1.15;;
28166;SDS011;15455;53.376;-6.262;2023-03-23T14:47:52;8.43;;;1.25;;
28166;SDS011;15455;53.376;-6.262;2023-03-23T14:51:02;14.18;;;1.45;;
28166;SDS011;15455;53.376;-6.262;2023-03-23T14:53:48;10.00;;;1.60;;
28166;SDS011;15455;53.376;-6.262;2023-03-23T14:56:35;7.47;;;1.67;;
28166;SDS011;15455;53.376;-6.262;2023-03-23T14:59:20;11.88;;;1.65;;
28166;SDS011;15455;53.376;-6.262;2023-03-23T15:02:05;8.13;;;1.73;;
28166;SDS011;15455;53.376;-6.262;2023-03-23T15:05:01;7.90;;;1.95;;
28166;SDS011;15455;53.376;-6.262;2023-03-23T15:07:50;14.32;;;1.67;;
28166;SDS011;15455;53.376;-6.262;2023-03-23T15:10:39;15.27;;;2.03;;
28166;SDS011;15455;53.376;-6.262;2023-03-23T15:13:23;12.48;;;1.45;;
28166;SDS011;15455;53.376;-6.262;2023-03-23T15:19:11;7.80;;;1.63;;
28166;SDS011;15455;53.376;-6.262;2023-03-23T15:27:56;11.63;;;1.88;;
28166;SDS011;15455;53.376;-6.262;2023-03-23T15:30:46;9.00;;;1.50;;
28166;SDS011;15455;53.376;-6.262;2023-03-23T15:33:34;16.92;;;2.10;;
28166;SDS011;15455;53.376;-6.262;2023-03-23T15:36:21;10.82;;;1.40;;
28166;SDS011;15455;53.376;-6.262;2023-03-23T15:39:05;15.50;;;1.80;;
28166;SDS011;15455;53.376;-6.262;2023-03-23T15:41:51;9.88;;;1.98;;
28166;SDS011;15455;53.376;-6.262;2023-03-23T15:44:36;7.60;;;1.98;;
28166;SDS011;15455;53.376;-6.262;2023-03-23T15:47:20;4.72;;;1.52;;
28166;SDS011;15455;53.376;-6.262;2023-03-23T15:53:33;7.88;;;1.08;;
28166;SDS011;15455;53.376;-6.262;2023-03-23T15:56:22;9.65;;;1.00;;
28166;SDS011;15455;53.376;-6.262;2023-03-23T15:59:08;8.20;;;1.35;;
28166;SDS011;15455;53.376;-6.262;2023-03-23T16:01:54;5.28;;;0.77;;
28166;SDS011;15455;53.376;-6.262;2023-03-23T16:04:41;7.38;;;1.42;;
28166;SDS011;15455;53.376;-6.262;2023-03-23T16:07:30;11.13;;;1.55;;
28166;SDS011;15455;53.376;-6.262;2023-03-23T16:10:17;10.85;;;1.58;;
28166;SDS011;15455;53.376;-6.262;2023-03-23T16:13:05;9.98;;;2.15;;
28166;SDS011;15455;53.376;-6.262;2023-03-23T16:15:51;16.02;;;1.98;;
28166;SDS011;15455;53.376;-6.262;2023-03-23T16:18:36;5.60;;;1.10;;
28166;SDS011;15455;53.376;-6.262;2023-03-23T16:21:21;11.05;;;1.73;;
28166;SDS011;15455;53.376;-6.262;2023-03-23T16:24:07;15.13;;;2.63;;
28166;SDS011;15455;53.376;-6.262;2023-03-23T16:26:53;7.45;;;1.55;;
28166;SDS011;15455;53.376;-6.262;2023-03-23T16:29:39;7.47;;;2.25;;
28166;SDS011;15455;53.376;-6.262;2023-03-23T16:32:31;13.98;;;2.70;;
28166;SDS011;15455;53.376;-6.262;2023-03-23T16:35:15;14.63;;;1.48;;
28166;SDS011;15455;53.376;-6.262;2023-03-23T16:38:02;15.60;;;2.10;;
28166;SDS011;15455;53.376;-6.262;2023-03-23T16:40:53;4.93;;;1.15;;
28166;SDS011;15455;53.376;-6.262;2023-03-23T16:43:38;10.63;;;1.67;;
28166;SDS011;15455;53.376;-6.262;2023-03-23T16:46:24;7.80;;;1.55;;
28166;SDS011;15455;53.376;-6.262;2023-03-23T16:49:10;15.88;;;2.35;;
28166;SDS011;15455;53.376;-6.262;2023-03-23T16:51:55;13.27;;;1.80;;
28166;SDS011;15455;53.376;-6.262;2023-03-23T16:54:41;13.95;;;1.90;;
28166;SDS011;15455;53.376;-6.262;2023-03-23T16:57:27;7.10;;;1.65;;
28166;SDS011;15455;53.376;-6.262;2023-03-23T17:00:14;9.40;;;1.73;;
28166;SDS011;15455;53.376;-6.262;2023-03-23T17:03:04;10.10;;;1.25;;
28166;SDS011;15455;53.376;-6.262;2023-03-23T17:05:50;11.57;;;1.92;;
28166;SDS011;15455;53.376;-6.262;2023-03-23T17:08:36;13.70;;;3.17;;
28166;SDS011;15455;53.376;-6.262;2023-03-23T17:11:21;11.95;;;1.90;;
28166;SDS011;15455;53.376;-6.262;2023-03-23T17:14:07;10.93;;;2.10;;
28166;SDS011;15455;53.376;-6.262;2023-03-23T17:16:52;11.80;;;2.10;;
28166;SDS011;15455;53.376;-6.262;2023-03-23T17:19:38;12.13;;;2.33;;
28166;SDS011;15455;53.376;-6.262;2023-03-23T17:22:24;24.45;;;2.40;;
28166;SDS011;15455;53.376;-6.262;2023-03-23T17:25:10;13.80;;;1.65;;
28166;SDS011;15455;53.376;-6.262;2023-03-23T17:27:56;8.32;;;2.38;;
28166;SDS011;15455;53.376;-6.262;2023-03-23T17:30:50;8.15;;;1.90;;
28166;SDS011;15455;53.376;-6.262;2023-03-23T17:33:37;2.65;;;1.27;;
28166;SDS011;15455;53.376;-6.262;2023-03-23T17:36:22;9.23;;;1.60;;
28166;SDS011;15455;53.376;-6.262;2023-03-23T17:39:08;6.95;;;1.25;;
28166;SDS011;15455;53.376;-6.262;2023-03-23T17:41:54;3.85;;;1.30;;
28166;SDS011;15455;53.376;-6.262;2023-03-23T17:44:39;6.47;;;1.30;;
28166;SDS011;15455;53.376;-6.262;2023-03-23T17:47:25;4.75;;;1.90;;
28166;SDS011;15455;53.376;-6.262;2023-03-23T17:50:11;11.93;;;1.98;;
28166;SDS011;15455;53.376;-6.262;2023-03-23T17:52:57;7.47;;;1.00;;
28166;SDS011;15455;53.376;-6.262;2023-03-23T17:55:44;2.35;;;0.73;;
28166;SDS011;15455;53.376;-6.262;2023-03-23T17:58:30;5.93;;;1.05;;
28166;SDS011;15455;53.376;-6.262;2023-03-23T18:01:16;7.07;;;1.35;;
28166;SDS011;15455;53.376;-6.262;2023-03-23T18:04:02;5.93;;;1.27;;
28166;SDS011;15455;53.376;-6.262;2023-03-23T18:06:49;7.43;;;1.38;;
28166;SDS011;15455;53.376;-6.262;2023-03-23T18:09:34;11.63;;;1.35;;
28166;SDS011;15455;53.376;-6.262;2023-03-23T18:12:20;11.05;;;1.92;;
28166;SDS011;15455;53.376;-6.262;2023-03-23T18:15:05;13.38;;;2.55;;
28166;SDS011;15455;53.376;-6.262;2023-03-23T18:17:52;12.95;;;1.73;;
28166;SDS011;15455;53.376;-6.262;2023-03-23T18:20:37;6.32;;;1.85;;
28166;SDS011;15455;53.376;-6.262;2023-03-23T18:23:23;12.63;;;2.80;;
28166;SDS011;15455;53.376;-6.262;2023-03-23T18:26:09;16.88;;;3.35;;
28166;SDS011;15455;53.376;-6.262;2023-03-23T18:28:57;11.52;;;2.80;;
28166;SDS011;15455;53.376;-6.262;2023-03-23T18:31:42;26.05;;;9.95;;
28166;SDS011;15455;53.376;-6.262;2023-03-23T18:34:28;21.05;;;8.82;;
28166;SDS011;15455;53.376;-6.262;2023-03-23T18:37:16;19.95;;;5.72;;
28166;SDS011;15455;53.376;-6.262;2023-03-23T18:40:01;17.90;;;5.40;;
28166;SDS011;15455;53.376;-6.262;2023-03-23T18:42:49;15.50;;;3.42;;
28166;SDS011;15455;53.376;-6.262;2023-03-23T18:45:35;14.10;;;3.67;;
28166;SDS011;15455;53.376;-6.262;2023-03-23T18:48:22;18.98;;;5.25;;
28166;SDS011;15455;53.376;-6.262;2023-03-23T18:51:08;30.10;;;11.25;;
28166;SDS011;15455;53.376;-6.262;2023-03-23T18:53:54;38.35;;;12.25;;
28166;SDS011;15455;53.376;-6.262;2023-03-23T18:56:39;19.60;;;4.50;;
28166;SDS011;15455;53.376;-6.262;2023-03-23T18:59:25;25.55;;;8.57;;
28166;SDS011;15455;53.376;-6.262;2023-03-23T19:02:14;42.45;;;12.52;;
28166;SDS011;15455;53.376;-6.262;2023-03-23T19:05:02;48.65;;;13.30;;
28166;SDS011;15455;53.376;-6.262;2023-03-23T19:07:48;55.13;;;14.93;;
28166;SDS011;15455;53.376;-6.262;2023-03-23T19:10:37;28.55;;;5.80;;
28166;SDS011;15455;53.376;-6.262;2023-03-23T19:13:26;39.88;;;12.60;;